createdAt,value
2018-07-08T00:00:03.756Z,77.39
2018-07-08T00:03:07.813Z,76.80
2018-07-08T00:06:10.787Z,76.87
2018-07-08T00:09:13.836Z,76.78
2018-07-08T00:12:17.349Z,78.01
2018-07-08T00:15:22.438Z,78.41
2018-07-08T00:18:25.465Z,78.56
2018-07-08T00:21:28.429Z,78.80
2018-07-08T00:24:31.821Z,78.40
2018-07-08T00:27:34.881Z,78.49
2018-07-08T00:30:37.885Z,77.96
2018-07-08T00:33:40.870Z,78.16
2018-07-08T00:36:43.867Z,78.24
2018-07-08T00:39:46.951Z,79.26
2018-07-08T00:42:50.285Z,79.29
2018-07-08T00:45:53.277Z,79.54
2018-07-08T00:48:56.345Z,79.44
2018-07-08T00:51:59.350Z,79.82
2018-07-08T00:55:02.466Z,80.72
2018-07-08T00:58:06.107Z,80.05
2018-07-08T01:01:09.544Z,80.06
2018-07-08T01:04:12.533Z,79.92
2018-07-08T01:07:15.673Z,79.90
2018-07-08T01:10:18.838Z,79.32
2018-07-08T01:13:21.891Z,79.74
2018-07-08T01:16:26.142Z,80.20
2018-07-08T01:19:29.942Z,82.04
2018-07-08T01:22:32.990Z,82.68
2018-07-08T01:25:47.167Z,82.62
2018-07-08T01:28:50.117Z,82.52
2018-07-08T01:31:55.086Z,82.00
2018-07-08T01:34:58.077Z,81.85
2018-07-08T01:38:01.036Z,82.15
2018-07-08T01:41:04.206Z,82.32
2018-07-08T01:44:07.234Z,81.85
2018-07-08T01:47:11.379Z,82.77
2018-07-08T01:50:14.525Z,82.37
2018-07-08T01:53:17.535Z,83.33
2018-07-08T01:56:20.525Z,84.08
2018-07-08T01:59:23.545Z,84.28
2018-07-08T02:02:26.578Z,84.50
2018-07-08T02:05:29.680Z,84.30
2018-07-08T02:08:33.061Z,84.91
2018-07-08T02:11:36.131Z,84.99
2018-07-08T02:14:39.126Z,84.32
2018-07-08T02:17:42.261Z,84.29
2018-07-08T02:20:45.257Z,84.48
2018-07-08T02:23:48.405Z,84.45
2018-07-08T02:26:51.504Z,84.45
2018-07-08T02:29:54.615Z,84.75
2018-07-08T02:32:57.686Z,84.85
2018-07-08T02:36:00.950Z,84.35
2018-07-08T02:39:05.208Z,84.04
2018-07-08T02:42:09.265Z,85.37
2018-07-08T02:45:12.455Z,85.81
2018-07-08T02:48:15.494Z,86.13
2018-07-08T02:51:19.601Z,86.28
2018-07-08T02:54:22.625Z,86.18
2018-07-08T02:57:25.625Z,86.10
2018-07-08T03:00:28.714Z,86.34
2018-07-08T03:03:31.698Z,86.17
2018-07-08T03:06:34.711Z,86.18
2018-07-08T03:09:37.748Z,85.85
2018-07-08T03:12:40.786Z,85.96
2018-07-08T03:15:43.726Z,84.99
2018-07-08T03:18:46.751Z,85.62
2018-07-08T03:21:49.820Z,85.89
2018-07-08T03:24:52.802Z,86.66
2018-07-08T03:27:56.878Z,86.91
2018-07-08T03:30:59.974Z,86.85
2018-07-08T03:34:03.119Z,86.48
2018-07-08T03:37:06.102Z,86.61
2018-07-08T03:40:09.030Z,86.06
2018-07-08T03:43:12.107Z,86.22
2018-07-08T03:46:15.029Z,85.95
2018-07-08T03:49:18.051Z,86.28
2018-07-08T03:52:21.098Z,85.67
2018-07-08T03:55:24.075Z,85.26
2018-07-08T03:58:27.050Z,84.60
2018-07-08T04:01:30.021Z,83.27
2018-07-08T04:04:32.980Z,82.83
2018-07-08T04:07:35.905Z,83.35
2018-07-08T04:10:50.071Z,72.51
2018-07-08T04:14:11.738Z,62.99
2018-07-08T04:17:18.571Z,57.50
2018-07-08T04:20:22.609Z,54.32
2018-07-08T04:23:30.446Z,51.94
2018-07-08T04:26:36.705Z,49.27
2018-07-08T04:29:39.691Z,47.16
2018-07-08T04:32:43.809Z,45.45
2018-07-08T04:35:46.782Z,45.65
2018-07-08T04:38:51.778Z,44.84
2018-07-08T04:42:01.049Z,43.18
2018-07-08T04:45:07.879Z,42.47
2018-07-08T04:48:28.427Z,41.66
2018-07-08T04:51:33.488Z,38.86
2018-07-08T04:54:41.425Z,37.39
2018-07-08T04:57:44.497Z,36.53
2018-07-08T05:00:47.531Z,36.23
2018-07-08T05:03:52.603Z,35.27
2018-07-08T05:06:56.754Z,34.59
2018-07-08T05:09:59.734Z,33.83
2018-07-08T05:13:02.750Z,34.98
2018-07-08T05:16:06.038Z,34.07
2018-07-08T05:19:09.167Z,34.88
2018-07-08T05:22:12.411Z,34.82
2018-07-08T05:25:17.514Z,35.64
2018-07-08T05:28:22.589Z,38.59
2018-07-08T05:31:31.185Z,38.89
2018-07-08T05:34:35.197Z,40.36
2018-07-08T05:37:43.209Z,42.11
2018-07-08T05:40:47.261Z,40.26
2018-07-08T05:43:53.766Z,38.57
2018-07-08T05:46:57.770Z,39.16
2018-07-08T05:50:00.772Z,37.04
2018-07-08T05:53:03.798Z,36.97
2018-07-08T05:56:06.825Z,39.33
2018-07-08T05:59:09.831Z,39.88
2018-07-08T06:02:23.413Z,40.32
2018-07-08T06:05:26.378Z,42.16
2018-07-08T06:08:29.436Z,38.60
2018-07-08T06:11:32.524Z,38.95
2018-07-08T06:14:35.531Z,35.25
2018-07-08T06:17:38.535Z,34.95
2018-07-08T06:20:45.427Z,36.32
2018-07-08T06:23:48.562Z,36.24
2018-07-08T06:26:51.820Z,36.94
2018-07-08T06:29:58.230Z,35.00
2018-07-08T06:33:01.270Z,38.58
2018-07-08T06:36:04.263Z,36.22
2018-07-08T06:39:09.311Z,36.51
2018-07-08T06:42:14.293Z,40.10
2018-07-08T06:45:18.338Z,38.50
2018-07-08T06:48:23.565Z,39.53
2018-07-08T06:51:32.332Z,39.00
2018-07-08T06:54:35.438Z,37.18
2018-07-08T06:57:39.647Z,38.90
2018-07-08T07:00:43.737Z,37.25
2018-07-08T07:03:54.174Z,39.04
2018-07-08T07:06:57.150Z,42.16
2018-07-08T07:10:05.182Z,40.36
2018-07-08T07:13:08.209Z,37.97
2018-07-08T07:16:12.207Z,34.00
2018-07-08T07:19:15.211Z,33.57
2018-07-08T07:22:18.182Z,31.44
2018-07-08T07:25:21.202Z,36.50
2018-07-08T07:28:24.221Z,37.76
2018-07-08T07:31:27.308Z,35.34
2018-07-08T07:34:30.286Z,34.49
2018-07-08T07:37:37.414Z,34.16
2018-07-08T07:40:40.364Z,36.37
2018-07-08T07:43:50.056Z,36.65
2018-07-08T07:46:53.140Z,37.36
2018-07-08T07:49:58.151Z,37.90
2018-07-08T07:53:02.187Z,38.01
2018-07-08T07:56:05.541Z,36.75
2018-07-08T07:59:10.623Z,34.61
2018-07-08T08:02:14.725Z,36.59
2018-07-08T08:05:18.713Z,38.04
2018-07-08T08:08:21.712Z,34.90
2018-07-08T08:11:26.720Z,36.63
2018-07-08T08:14:30.763Z,39.17
2018-07-08T08:17:34.762Z,38.23
2018-07-08T08:20:37.828Z,37.32
2018-07-08T08:23:41.856Z,37.07
2018-07-08T08:26:45.836Z,34.57
2018-07-08T08:29:54.886Z,35.85
2018-07-08T08:32:58.926Z,34.63
2018-07-08T08:36:03.977Z,33.19
2018-07-08T08:39:07.983Z,36.08
2018-07-08T08:42:12.069Z,36.36
2018-07-08T08:45:17.169Z,35.49
2018-07-08T08:48:25.542Z,36.73
2018-07-08T08:51:29.541Z,38.41
2018-07-08T08:54:32.501Z,32.90
2018-07-08T08:57:35.451Z,37.42
2018-07-08T09:00:40.469Z,35.91
2018-07-08T09:03:45.498Z,35.72
2018-07-08T09:06:50.522Z,32.95
2018-07-08T09:09:55.578Z,31.89
2018-07-08T09:12:58.547Z,31.40
2018-07-08T09:16:07.359Z,33.33
2018-07-08T09:19:10.297Z,30.52
2018-07-08T09:22:13.357Z,31.34
2018-07-08T09:25:17.366Z,30.30
2018-07-08T09:28:20.367Z,30.47
2018-07-08T09:31:23.357Z,31.19
2018-07-08T09:34:26.382Z,31.20
2018-07-08T09:40:31.837Z,30.56
2018-07-08T09:43:35.805Z,31.67
2018-07-08T09:46:44.462Z,32.60
2018-07-08T09:49:47.486Z,30.83
2018-07-08T09:52:50.515Z,29.40
2018-07-08T09:55:53.479Z,29.23
2018-07-08T09:58:56.437Z,30.17
2018-07-08T10:01:59.467Z,30.98
2018-07-08T10:05:02.490Z,31.14
2018-07-08T10:08:05.562Z,32.01
2018-07-08T10:11:09.636Z,29.76
2018-07-08T10:14:13.841Z,29.45
2018-07-08T10:17:17.904Z,28.99
2018-07-08T10:20:25.026Z,29.68
2018-07-08T10:23:28.044Z,27.94
2018-07-08T10:26:32.171Z,27.40
2018-07-08T10:29:45.267Z,27.29
2018-07-08T10:32:49.386Z,28.46
2018-07-08T10:36:00.326Z,27.09
2018-07-08T10:39:10.678Z,27.29
2018-07-08T10:42:13.654Z,29.37
2018-07-08T10:45:16.790Z,28.55
2018-07-08T10:48:21.983Z,30.73
2018-07-08T10:51:26.187Z,27.33
2018-07-08T10:54:29.221Z,27.65
2018-07-08T10:57:34.414Z,28.84
2018-07-08T11:00:37.522Z,29.81
2018-07-08T11:03:40.509Z,27.53
2018-07-08T11:06:43.640Z,29.21
2018-07-08T11:09:48.232Z,28.98
2018-07-08T11:12:53.322Z,30.62
2018-07-08T11:15:57.884Z,27.56
2018-07-08T11:19:02.969Z,27.26
2018-07-08T11:22:12.398Z,27.24
2018-07-08T11:25:18.420Z,25.35
2018-07-08T11:28:21.581Z,24.43
2018-07-08T11:31:28.673Z,27.40
2018-07-08T11:34:32.710Z,28.14
2018-07-08T11:37:37.975Z,27.11
2018-07-08T11:40:41.024Z,28.56
2018-07-08T11:43:52.169Z,28.64
2018-07-08T11:46:55.297Z,26.84
2018-07-08T11:50:00.367Z,25.42
2018-07-08T11:53:04.489Z,26.83
2018-07-08T11:56:07.554Z,26.34
2018-07-08T11:59:11.662Z,26.70
2018-07-08T12:02:14.724Z,26.03
2018-07-08T12:05:19.769Z,25.32
2018-07-08T12:08:23.789Z,25.93
2018-07-08T12:11:27.104Z,25.68
2018-07-08T12:14:30.186Z,25.99
2018-07-08T12:17:38.269Z,26.78
2018-07-08T12:20:43.301Z,24.75
2018-07-08T12:23:46.392Z,25.43
2018-07-08T12:26:49.590Z,24.02
2018-07-08T12:29:52.788Z,24.82
2018-07-08T12:32:55.922Z,24.41
2018-07-08T12:35:58.914Z,23.88
2018-07-08T12:39:02.107Z,24.58
2018-07-08T12:42:05.235Z,24.24
2018-07-08T12:45:08.759Z,24.64
2018-07-08T12:48:11.873Z,23.87
2018-07-08T12:51:15.000Z,24.88
2018-07-08T12:54:18.101Z,23.65
2018-07-08T12:57:21.131Z,23.49
2018-07-08T13:00:24.230Z,23.44
2018-07-08T13:03:27.390Z,22.13
2018-07-08T13:06:30.537Z,22.37
2018-07-08T13:09:33.504Z,22.21
2018-07-08T13:12:36.581Z,22.33
2018-07-08T13:15:40.155Z,22.16
2018-07-08T13:18:43.161Z,24.04
2018-07-08T13:21:46.330Z,20.69
2018-07-08T13:24:49.382Z,22.07
2018-07-08T13:27:52.407Z,20.92
2018-07-08T13:30:56.221Z,21.79
2018-07-08T13:33:59.204Z,22.60
2018-07-08T13:37:02.225Z,22.59
2018-07-08T13:40:05.526Z,22.72
2018-07-08T13:43:08.645Z,22.83
2018-07-08T13:46:11.738Z,20.64
2018-07-08T13:49:14.790Z,20.81
2018-07-08T13:52:17.895Z,20.95
2018-07-08T13:55:21.649Z,21.49
2018-07-08T13:58:28.270Z,21.42
2018-07-08T14:01:31.382Z,21.79
2018-07-08T14:04:34.641Z,20.83
2018-07-08T14:07:37.688Z,20.16
2018-07-08T14:10:40.818Z,20.25
2018-07-08T14:13:43.874Z,20.56
2018-07-08T14:16:46.922Z,20.53
2018-07-08T14:19:49.886Z,20.93
2018-07-08T14:22:52.995Z,20.39
2018-07-08T14:25:56.141Z,19.36
2018-07-08T14:28:59.147Z,20.24
2018-07-08T14:32:02.243Z,20.20
2018-07-08T14:35:05.277Z,20.68
2018-07-08T14:38:08.354Z,20.40
2018-07-08T14:41:11.466Z,21.14
2018-07-08T14:44:14.459Z,19.59
2018-07-08T14:47:17.509Z,20.30
2018-07-08T14:50:20.538Z,20.62
2018-07-08T14:53:23.717Z,20.72
2018-07-08T14:56:26.789Z,21.08
2018-07-08T14:59:29.902Z,20.31
2018-07-08T15:02:34.055Z,18.54
2018-07-08T15:05:37.126Z,18.52
2018-07-08T15:08:40.262Z,19.24
2018-07-08T15:11:43.338Z,18.52
2018-07-08T15:14:46.315Z,19.75
2018-07-08T15:17:49.418Z,20.59
2018-07-08T15:20:52.467Z,19.40
2018-07-08T15:23:55.432Z,20.28
2018-07-08T15:26:58.478Z,19.98
2018-07-08T15:30:01.944Z,20.77
2018-07-08T15:33:05.058Z,21.13
2018-07-08T15:36:08.126Z,20.80
2018-07-08T15:39:11.063Z,20.37
2018-07-08T15:42:14.039Z,19.29
2018-07-08T15:45:17.043Z,20.35
2018-07-08T15:48:20.052Z,20.86
2018-07-08T15:51:23.018Z,20.00
2018-07-08T15:54:25.993Z,20.81
2018-07-08T15:57:29.084Z,20.37
2018-07-08T16:00:32.075Z,19.82
2018-07-08T16:03:35.199Z,20.48
2018-07-08T16:06:39.165Z,20.36
2018-07-08T16:09:42.101Z,20.92
2018-07-08T16:12:45.058Z,20.52
2018-07-08T16:15:48.058Z,19.67
2018-07-08T16:18:51.144Z,19.59
2018-07-08T16:21:54.193Z,19.60
2018-07-08T16:24:57.379Z,20.59
2018-07-08T16:28:00.422Z,19.54
2018-07-08T16:31:03.425Z,20.76
2018-07-08T16:34:06.412Z,20.16
2018-07-08T16:37:09.387Z,19.94
2018-07-08T16:40:12.426Z,22.04
2018-07-08T16:43:15.483Z,20.82
2018-07-08T16:46:19.261Z,21.08
2018-07-08T16:49:22.313Z,20.37
2018-07-08T16:52:25.478Z,20.10
2018-07-08T16:55:28.429Z,20.38
2018-07-08T16:58:31.416Z,21.06
2018-07-08T17:01:34.393Z,20.69
2018-07-08T17:04:37.724Z,19.97
2018-07-08T17:07:40.810Z,20.50
2018-07-08T17:10:43.796Z,20.52
2018-07-08T17:13:46.963Z,19.06
2018-07-08T17:16:50.058Z,18.22
2018-07-08T17:19:54.305Z,18.49
2018-07-08T17:22:58.120Z,20.19
2018-07-08T17:26:01.075Z,18.41
2018-07-08T17:29:04.204Z,18.49
2018-07-08T17:32:18.514Z,20.11
2018-07-08T17:35:22.087Z,20.49
2018-07-08T17:38:25.148Z,19.95
2018-07-08T17:41:28.147Z,20.78
2018-07-08T17:44:31.181Z,20.85
2018-07-08T17:47:35.248Z,21.94
2018-07-08T17:50:38.178Z,22.15
2018-07-08T17:53:41.288Z,22.79
2018-07-08T17:56:44.290Z,23.28
2018-07-08T17:59:47.392Z,23.78
2018-07-08T18:02:50.390Z,23.89
2018-07-08T18:05:53.374Z,23.72
2018-07-08T18:08:56.356Z,24.17
2018-07-08T18:12:00.532Z,24.38
2018-07-08T18:15:06.980Z,24.36
2018-07-08T18:18:10.126Z,24.29
2018-07-08T18:21:14.155Z,24.69
2018-07-08T18:24:17.194Z,24.57
2018-07-08T18:27:20.242Z,25.51
2018-07-08T18:30:23.427Z,25.17
2018-07-08T18:33:26.551Z,25.65
2018-07-08T18:36:29.673Z,26.84
2018-07-08T18:39:32.716Z,26.40
2018-07-08T18:42:35.840Z,27.57
2018-07-08T18:45:38.913Z,27.71
2018-07-08T18:48:41.929Z,27.45
2018-07-08T18:51:44.917Z,28.86
2018-07-08T18:54:47.993Z,29.63
2018-07-08T18:57:51.172Z,29.91
2018-07-08T19:00:54.354Z,31.24
2018-07-08T19:03:57.361Z,31.16
2018-07-08T19:07:00.336Z,30.99
2018-07-08T19:10:03.381Z,31.72
2018-07-08T19:13:06.553Z,32.51
2018-07-08T19:16:09.617Z,33.02
2018-07-08T19:19:12.602Z,33.82
2018-07-08T19:22:15.599Z,34.01
2018-07-08T19:25:18.686Z,34.66
2018-07-08T19:28:21.854Z,34.88
2018-07-08T19:31:24.917Z,35.85
2018-07-08T19:34:27.932Z,37.43
2018-07-08T19:37:30.991Z,38.49
2018-07-08T19:40:34.135Z,39.97
2018-07-08T19:43:37.104Z,40.71
2018-07-08T19:46:40.077Z,40.14
2018-07-08T19:49:43.206Z,39.94
2018-07-08T19:52:46.620Z,40.80
2018-07-08T19:55:49.777Z,43.13
2018-07-08T19:58:52.874Z,44.47
2018-07-08T20:01:56.063Z,46.33
2018-07-08T20:04:59.105Z,47.39
2018-07-08T20:08:02.239Z,48.61
2018-07-08T20:11:05.477Z,49.33
2018-07-08T20:14:08.522Z,49.36
2018-07-08T20:17:11.586Z,50.69
2018-07-08T20:20:15.832Z,49.94
2018-07-08T20:23:20.066Z,52.65
2018-07-08T20:26:23.054Z,53.59
2018-07-08T20:29:26.130Z,53.53
2018-07-08T20:32:29.235Z,54.78
2018-07-08T20:35:33.156Z,56.82
2018-07-08T20:38:36.419Z,56.43
2018-07-08T20:41:39.415Z,55.65
2018-07-08T20:44:45.433Z,56.65
2018-07-08T20:47:48.758Z,58.63
2018-07-08T20:50:52.897Z,58.98
2018-07-08T20:53:56.086Z,60.35
2018-07-08T20:56:59.128Z,60.91
2018-07-08T21:00:02.282Z,61.33
2018-07-08T21:03:05.738Z,61.54
2018-07-08T21:06:08.815Z,59.39
2018-07-08T21:09:12.699Z,60.16
2018-07-08T21:15:31.820Z,59.79
2018-07-08T21:18:35.019Z,61.46
2018-07-08T21:21:39.770Z,62.72
2018-07-08T21:24:42.778Z,62.59
2018-07-08T21:27:46.376Z,64.41
2018-07-08T21:30:50.560Z,64.96
2018-07-08T21:33:55.006Z,64.37
2018-07-08T21:36:58.304Z,64.36
2018-07-08T21:40:01.266Z,64.35
2018-07-08T21:43:04.263Z,63.11
2018-07-08T21:46:07.275Z,62.26
2018-07-08T21:49:10.278Z,62.06
2018-07-08T21:52:13.249Z,61.95
2018-07-08T21:55:16.301Z,61.90
2018-07-08T21:58:19.503Z,63.40
2018-07-08T22:01:24.938Z,64.10
2018-07-08T22:04:30.965Z,64.58
2018-07-08T22:07:40.802Z,64.65
2018-07-08T22:10:44.962Z,64.36
2018-07-08T22:13:49.302Z,65.18
2018-07-08T22:16:52.621Z,65.33
2018-07-08T22:19:57.141Z,66.16
2018-07-08T22:23:04.992Z,65.79
2018-07-08T22:26:08.277Z,67.29
2018-07-08T22:29:12.748Z,67.58
2018-07-08T22:32:15.712Z,66.91
2018-07-08T22:35:18.723Z,66.75
2018-07-08T22:38:21.773Z,67.38
2018-07-08T22:41:24.806Z,65.95
2018-07-08T22:44:29.537Z,66.03
2018-07-08T22:47:33.450Z,67.91
2018-07-08T22:50:38.099Z,66.90
2018-07-08T22:53:41.135Z,68.08
2018-07-08T22:56:44.771Z,65.97
2018-07-08T23:00:01.016Z,65.71
2018-07-08T23:03:19.110Z,65.45
2018-07-08T23:06:22.126Z,66.44
2018-07-08T23:09:25.403Z,66.69
2018-07-08T23:12:28.636Z,65.78
2018-07-08T23:15:32.637Z,66.24
2018-07-08T23:18:35.609Z,66.15
2018-07-08T23:21:44.125Z,66.92
2018-07-08T23:24:48.492Z,66.45
2018-07-08T23:27:54.816Z,68.37
2018-07-08T23:30:58.902Z,69.43
2018-07-08T23:34:03.066Z,69.44
2018-07-08T23:37:06.111Z,70.26
2018-07-08T23:40:09.146Z,69.15
2018-07-08T23:43:12.122Z,69.40
2018-07-08T23:46:15.081Z,70.59
2018-07-08T23:49:19.926Z,72.18
2018-07-08T23:52:22.945Z,72.89
2018-07-08T23:55:25.991Z,72.69
2018-07-08T23:58:29.813Z,72.93
